Etusivu
METAR-TAF:

METAR-TAF

Lentoasemat :

Havanna, Kuuba

Leveyspiiri: 22-59N, Pituuspiiri: 082-24W, korkeus merenpinnasta: 59 m

Tämänhetkinen sää

Tämä raportti tehtiin 26 minuuttia sitten, kello 21.55 UTC
Tuuli 11 kn lännestä/lounaasta
Lämpötila 29°C
Kosteus 52%
Ilmanpaine 1016 hPa
Näkyvyys 10 km tai enemmän
Muutamia pilviä 3000 ft:n korkeudessa

METAR: MUHA 162155Z 24011KT 9999 FEW030 29/18 Q1016

Aika: 17:21 (22:21 UTC)

Sääennuste

Tämä raportti tehtiin 5 tuntia ja 21 minuuttia sitten, kello 17.00 UTC
Ennuste voimassa 16. päivästä klo 18 UTC - 17. päivään klo 18 UTC
Tuuli 12 kn kaakosta
Näkyvyys: 9000 m
Hajanaisia pilviä 3000 ft:n korkeudessa
Tulossa
17. päivästä klo 04 UTC - 17. päivään klo 06 UTC
Tuuli 3 kn eri suunnista
Todennäköisyys 30% :
Ajoittain
17. päivästä klo 09 UTC - 17. päivään klo 12 UTC
Näkyvyys: 5000 m
utua

TAF: MUHA 161700Z 1618/1718 14012KT 9000 SCT030 BECMG 1704/1706 VRB03KT PROB30 TEMPO 1709/1712 5000 BR

Säähavainnot ja -ennusteet yli 4000 lentoasemalta (METAR- ja TAF-raportit).

Käytössä olevat sääasemat on merkitty karttaan keltaisilla ja punaisilla pisteillä.

Aseta hiiri pisteen päälle nähdäksesi sääaseman nimen.

Klikkaa sitten nähdäksesi säähavainnot ja -ennusteet.

Kartan vaihtaminen: klikkaa mustalla rastilla varustettuja vihreitä pisteitä, niin voit zoomata sisään; viivalla varustettua vihreää pistettä, niin voit zoomata ulos tai vihreitä nuolia, niin pääset viereisille kartoille.


METAR-TAF: